createdAt,value
2023-03-23T15:58:26.491Z,99176.55
2023-03-23T16:00:54.518Z,99181.45
2023-03-23T16:03:27.781Z,99186.58
2023-03-23T16:05:55.648Z,99188.38
2023-03-23T16:08:23.170Z,99193.61
2023-03-23T16:10:51.292Z,99195.17
2023-03-23T16:13:18.508Z,99199.09
2023-03-23T16:15:46.321Z,99201.25
2023-03-23T16:18:21.828Z,99206.86
2023-03-23T16:20:50.191Z,99209.09
2023-03-23T16:23:19.882Z,99209.67
2023-03-23T16:25:47.017Z,99209.88
2023-03-23T16:28:15.477Z,99218.17
2023-03-23T16:30:45.641Z,99217.80
2023-03-23T16:33:13.039Z,99217.36
2023-03-23T16:35:40.333Z,99220.61
2023-03-23T16:38:09.292Z,99213.65
2023-03-23T16:40:38.504Z,99223.98
2023-03-23T16:43:08.456Z,99222.47
2023-03-23T16:45:36.796Z,99222.56
2023-03-23T16:48:04.198Z,99226.67
2023-03-23T16:50:32.272Z,99224.20
2023-03-23T16:52:59.676Z,99222.86
2023-03-23T16:55:27.317Z,99228.48
2023-03-23T16:58:05.411Z,99228.31
2023-03-23T17:00:41.051Z,99230.51
2023-03-23T17:03:09.098Z,99230.00
2023-03-23T17:05:38.588Z,99238.08
2023-03-23T17:08:07.550Z,99246.61
2023-03-23T17:10:35.489Z,99242.45
2023-03-23T17:13:03.184Z,99242.95
2023-03-23T17:15:30.260Z,99248.22
2023-03-23T17:17:58.110Z,99243.36
2023-03-23T17:20:25.869Z,99241.20
2023-03-23T17:22:53.154Z,99242.84
2023-03-23T17:25:20.439Z,99244.42
2023-03-23T17:27:47.510Z,99249.30
2023-03-23T17:30:15.516Z,99249.73
2023-03-23T17:32:42.864Z,99251.68
2023-03-23T17:35:12.495Z,99244.17
2023-03-23T17:37:39.929Z,99240.19
2023-03-23T17:40:10.345Z,99243.63
2023-03-23T17:42:38.096Z,99251.45
2023-03-23T17:45:06.434Z,99267.83
2023-03-23T17:47:34.288Z,99276.34
2023-03-23T17:50:11.519Z,99279.07
2023-03-23T17:52:40.137Z,99289.70
2023-03-23T17:55:08.457Z,99294.72
2023-03-23T17:57:36.262Z,99297.25
2023-03-23T18:00:04.171Z,99299.77
2023-03-23T18:02:34.239Z,99300.70
2023-03-23T18:05:01.555Z,99297.05
2023-03-23T18:07:29.317Z,99296.92
2023-03-23T18:10:00.745Z,99296.24
2023-03-23T18:12:27.951Z,99302.15
2023-03-23T18:14:59.136Z,99299.67
2023-03-23T18:17:26.787Z,99302.15
2023-03-23T18:19:54.130Z,99298.85
2023-03-23T18:22:21.529Z,99294.34
2023-03-23T18:24:48.917Z,99290.55
2023-03-23T18:27:17.447Z,99289.11
2023-03-23T18:29:45.165Z,99294.95
2023-03-23T18:32:12.891Z,99298.95
2023-03-23T18:34:41.799Z,99301.44
2023-03-23T18:37:09.778Z,99298.95
2023-03-23T18:39:37.059Z,99292.36
2023-03-23T18:42:04.214Z,99296.77
2023-03-23T18:44:31.940Z,99299.27
2023-03-23T18:46:59.031Z,99300.54
2023-03-23T18:49:26.426Z,99299.75
2023-03-23T18:51:53.760Z,99298.64
2023-03-23T18:54:22.139Z,99298.09
2023-03-23T18:56:49.526Z,99296.66
2023-03-23T18:59:17.144Z,99294.39
2023-03-23T19:01:44.242Z,99293.45
2023-03-23T19:04:13.726Z,99287.95
2023-03-23T19:06:41.186Z,99283.27
2023-03-23T19:09:08.337Z,99284.02
2023-03-23T19:11:35.882Z,99281.09
2023-03-23T19:14:03.819Z,99284.09
2023-03-23T19:16:32.356Z,99287.52
2023-03-23T19:19:10.363Z,99291.50
2023-03-23T19:21:39.854Z,99296.70
2023-03-23T19:24:09.094Z,99300.15
2023-03-23T19:26:38.391Z,99294.70
2023-03-23T19:31:36.468Z,99295.31
2023-03-23T19:34:03.776Z,99293.65
2023-03-23T19:36:31.438Z,99293.21
2023-03-23T19:39:02.803Z,99292.26
2023-03-23T19:41:30.552Z,99296.00
2023-03-23T19:43:57.889Z,99295.89
2023-03-23T19:46:27.012Z,99294.23
2023-03-23T19:48:56.517Z,99289.25
2023-03-23T19:51:24.414Z,99286.91
2023-03-23T19:53:51.754Z,99285.88
2023-03-23T19:56:21.639Z,99284.21
2023-03-23T19:58:49.441Z,99279.64
2023-03-23T20:01:20.407Z,99282.37
2023-03-23T20:03:48.482Z,99280.40
2023-03-23T20:06:17.828Z,99276.34
2023-03-23T20:08:46.235Z,99272.20
2023-03-23T20:11:14.884Z,99268.91
2023-03-23T20:13:42.659Z,99278.32
2023-03-23T20:16:11.818Z,99281.16
2023-03-23T20:18:40.549Z,99282.98
2023-03-23T20:21:11.993Z,99283.45
2023-03-23T20:23:40.561Z,99289.36
2023-03-23T20:26:12.301Z,99288.89
2023-03-23T20:28:40.800Z,99293.16
2023-03-23T20:31:19.955Z,99289.49
2023-03-23T20:34:00.572Z,99286.00
2023-03-23T20:36:29.958Z,99275.77
2023-03-23T20:38:58.011Z,99265.40
2023-03-23T20:41:25.752Z,99264.28
2023-03-23T20:43:52.999Z,99269.96
2023-03-23T20:46:21.696Z,99269.58
2023-03-23T20:48:51.802Z,99267.87
2023-03-23T20:51:23.270Z,99267.96
2023-03-23T20:53:51.140Z,99269.10
2023-03-23T20:56:19.772Z,99271.11
2023-03-23T20:58:47.976Z,99270.95
2023-03-23T21:01:22.819Z,99265.92
2023-03-23T21:03:54.373Z,99265.14
2023-03-23T21:06:22.230Z,99266.30
2023-03-23T21:08:52.576Z,99273.62
2023-03-23T21:11:22.312Z,99272.86
2023-03-23T21:13:50.739Z,99274.86
2023-03-23T21:16:19.379Z,99276.52
2023-03-23T21:18:47.776Z,99280.28
2023-03-23T21:21:18.469Z,99275.47
2023-03-23T21:23:52.258Z,99278.84
2023-03-23T21:26:21.668Z,99280.84
2023-03-23T21:28:50.925Z,99279.42
2023-03-23T21:31:18.501Z,99275.95
2023-03-23T21:33:46.099Z,99274.09
2023-03-23T21:36:13.935Z,99272.50
2023-03-23T21:38:41.702Z,99277.83
2023-03-23T21:41:11.933Z,99278.36
2023-03-23T21:43:40.724Z,99282.05
2023-03-23T21:46:10.033Z,99283.96
2023-03-23T21:48:38.822Z,99286.98
2023-03-23T21:51:10.732Z,99288.30
2023-03-23T21:53:38.009Z,99289.96
2023-03-23T21:56:08.057Z,99293.56
2023-03-23T21:58:35.636Z,99292.77
2023-03-23T22:01:03.201Z,99293.74
2023-03-23T22:03:32.831Z,99295.26
2023-03-23T22:06:00.839Z,99295.50
2023-03-23T22:08:30.669Z,99298.91
2023-03-23T22:11:02.821Z,99306.48
2023-03-23T22:13:30.532Z,99310.63
2023-03-23T22:15:58.758Z,99310.16
2023-03-23T22:18:26.215Z,99307.27
2023-03-23T22:20:53.420Z,99309.41
2023-03-23T22:23:20.870Z,99311.05
2023-03-23T22:25:48.288Z,99307.39
2023-03-23T22:28:15.481Z,99299.98
2023-03-23T22:30:43.692Z,99306.69
2023-03-23T22:33:17.826Z,99310.78
2023-03-23T22:35:47.801Z,99314.67
2023-03-23T22:38:15.223Z,99316.59
2023-03-23T22:40:43.104Z,99320.77
2023-03-23T22:43:10.853Z,99315.98
2023-03-23T22:45:38.060Z,99311.40
2023-03-23T22:48:08.262Z,99310.17
2023-03-23T22:50:36.147Z,99311.94
2023-03-23T22:53:03.535Z,99317.80
2023-03-23T22:55:30.927Z,99318.04
2023-03-23T22:57:58.786Z,99319.02
2023-03-23T23:00:26.557Z,99321.41
2023-03-23T23:02:53.948Z,99317.09
2023-03-23T23:05:21.141Z,99318.10
2023-03-23T23:07:48.352Z,99321.56
2023-03-23T23:10:15.718Z,99330.59
2023-03-23T23:12:45.739Z,99329.73
2023-03-23T23:15:14.889Z,99326.88
2023-03-23T23:17:43.168Z,99323.36
2023-03-23T23:20:14.227Z,99327.01
2023-03-23T23:22:43.126Z,99322.64
2023-03-23T23:25:11.638Z,99325.98
2023-03-23T23:27:38.879Z,99326.80
2023-03-23T23:30:09.205Z,99325.73
2023-03-23T23:32:36.640Z,99328.38
2023-03-23T23:35:05.804Z,99329.59
2023-03-23T23:37:33.218Z,99333.75
2023-03-23T23:40:00.365Z,99334.83
2023-03-23T23:42:27.604Z,99337.95
2023-03-23T23:44:54.882Z,99334.31
2023-03-23T23:47:22.464Z,99331.49
2023-03-23T23:49:49.701Z,99344.20
2023-03-23T23:52:16.821Z,99341.26
2023-03-23T23:54:47.308Z,99339.45
2023-03-23T23:57:15.595Z,99340.17
2023-03-23T23:59:44.051Z,99343.08
